Ralph Wien Memorial Airport Kotzebue US
ICAO: PAOT
IATA:
Category: Medium
Scheduled Services:

Elevation: 14 ft
TransAlt. 18000 ft.

Airport Communications:
ASOS:135.45
ATIS:135.45
ANCHORAGE CNTR:119.2
CTAF:123.6
KOTZEBUE RDO:122.2
TWEB:115.7
UNICOM:122.8

PAOT Zoom In..

If you have problems with the map follow the link
https://www.worldairports.se/pages/airport.php?
ICAO=PAOT

Runways:

(A) RW 09 length 5900 ft width 150 ft
ILS 110.70 / hdg 87

(B) RW 18 length 3876 ft width 90 ft
---- / hdg 179

(C) RW 27 length 5900 ft width 150 ft
---- / hdg 267

(D) RW 36 length 3876 ft width 90 ft
---- / hdg 359

Location; PAOT
Day. 22 / Time. 15.53 Zulu
* Altimeter: 30.03
* Temperature: -08° c. -17.6°f.
* Wind from: 110° Speed 22 kn.
Dewpoint: -11° c.
Visibility: 10 Statute Miles.
Clouds: Broken 4900 ft.
Clouds: Overcast 6000 ft.

PAOT 221553Z 11022KT 10SM BKN049 OVC060 M08/M11 A3003 RMK AO2 PK WND 11028/1505 SLP168 T10831111


Wind From 110°
Speed 22 kn.

 
 
jpsmedia.com for Web Design worldairports.se 2019   terms of use